Time;durP1;ratioP1;P1;durP2;ratioP2;P2;SDS_P1;SDS_P2;PMS_P1;PMS_P2;Temp;Humidity;BMP_temperature;BMP_pressure;BME280_temperature;BME280_humidity;BME280_pressure;Samples;Min_cycle;Max_cycle;Signal;HPM_P1;HPM_P2
2022/09/27 00:02:15;;;;;;;6.53;1.38;;;;;;;;;;4991896;28;20044;-81
2022/09/27 00:04:41;;;;;;;4.15;1.30;;;;;;;;;;4980329;28;20450;-82
2022/09/27 00:07:09;;;;;;;3.35;1.30;;;;;;;;;;4986883;28;20157;-82
2022/09/27 00:09:36;;;;;;;2.70;1.23;;;;;;;;;;5001881;28;20502;-81
2022/09/27 00:12:02;;;;;;;3.30;1.55;;;;;;;;;;4991019;28;20046;-81
2022/09/27 00:14:28;;;;;;;7.63;1.80;;;;;;;;;;5006941;28;20100;-81
2022/09/27 00:16:54;;;;;;;2.38;1.38;;;;;;;;;;4989302;28;20050;-81
2022/09/27 00:19:22;;;;;;;4.22;1.27;;;;;;;;;;4982241;28;20453;-80
2022/09/27 00:21:49;;;;;;;6.00;1.40;;;;;;;;;;5006124;28;20100;-81
2022/09/27 00:24:19;;;;;;;3.20;1.30;;;;;;;;;;4989502;28;20050;-80
2022/09/27 00:26:46;;;;;;;2.58;1.20;;;;;;;;;;5009722;28;20046;-80
2022/09/27 00:29:12;;;;;;;4.03;1.40;;;;;;;;;;5008408;28;20060;-81
2022/09/27 00:31:39;;;;;;;6.15;1.40;;;;;;;;;;4990293;28;20054;-80
2022/09/27 00:34:05;;;;;;;7.47;2.08;;;;;;;;;;4989881;28;20046;-81
2022/09/27 00:36:32;;;;;;;5.57;1.63;;;;;;;;;;5009749;28;20086;-80
2022/09/27 00:38:59;;;;;;;6.32;1.67;;;;;;;;;;4991285;28;20053;-80
2022/09/27 00:41:27;;;;;;;3.63;1.80;;;;;;;;;;5009321;28;20061;-80
2022/09/27 00:43:57;;;;;;;6.65;1.55;;;;;;;;;;4993750;28;20548;-81
2022/09/27 00:46:41;;;;;;;7.05;1.55;;;;;;;;;;4992745;28;20046;-80
2022/09/27 00:49:11;;;;;;;3.40;1.67;;;;;;;;;;5002762;28;20486;-81
2022/09/27 00:51:39;;;;;;;9.23;1.88;;;;;;;;;;5009232;28;20038;-80
2022/09/27 00:54:06;;;;;;;10.10;1.70;;;;;;;;;;5013641;28;20054;-80
2022/09/27 00:56:33;;;;;;;2.40;1.20;;;;;;;;;;5008166;28;20053;-80
2022/09/27 00:59:03;;;;;;;3.63;1.50;;;;;;;;;;5009026;28;20049;-80
2022/09/27 01:01:29;;;;;;;5.47;2.10;;;;;;;;;;5012349;28;20037;-80
2022/09/27 01:04:06;;;;;;;6.05;1.90;;;;;;;;;;4992649;28;20061;-80
2022/09/27 01:06:33;;;;;;;7.70;1.98;;;;;;;;;;5010118;28;20038;-80
2022/09/27 01:08:59;;;;;;;6.72;2.13;;;;;;;;;;4985209;28;20445;-80
2022/09/27 01:11:44;;;;;;;2.90;1.30;;;;;;;;;;5003685;28;20038;-80
2022/09/27 01:14:15;;;;;;;3.72;1.48;;;;;;;;;;5007941;28;20046;-81
2022/09/27 01:16:55;;;;;;;3.17;1.20;;;;;;;;;;4986716;28;20560;-80
2022/09/27 01:19:27;;;;;;;5.65;1.70;;;;;;;;;;5009952;28;20053;-80
2022/09/27 01:21:56;;;;;;;5.88;1.60;;;;;;;;;;4979913;28;20049;-79
2022/09/27 01:24:28;;;;;;;4.43;1.27;;;;;;;;;;4988230;28;20042;-79
2022/09/27 01:26:54;;;;;;;3.47;1.40;;;;;;;;;;4990603;28;20038;-79
2022/09/27 01:29:30;;;;;;;3.83;1.40;;;;;;;;;;5009347;28;20938;-79
2022/09/27 01:32:03;;;;;;;3.28;1.20;;;;;;;;;;4995305;28;20052;-79
2022/09/27 01:35:05;;;;;;;3.15;1.48;;;;;;;;;;4988561;28;20057;-79
2022/09/27 01:37:37;;;;;;;2.92;1.38;;;;;;;;;;4949364;28;20049;-79
2022/09/27 01:40:12;;;;;;;6.65;1.58;;;;;;;;;;5004066;28;20068;-79
2022/09/27 01:42:47;;;;;;;3.22;1.35;;;;;;;;;;4994010;28;20478;-79
2022/09/27 01:45:17;;;;;;;4.57;1.70;;;;;;;;;;5009068;28;20049;-79
2022/09/27 01:47:45;;;;;;;9.85;1.90;;;;;;;;;;5011194;28;20050;-80
2022/09/27 01:50:13;;;;;;;6.82;1.70;;;;;;;;;;4988496;28;20132;-80
2022/09/27 01:52:42;;;;;;;5.03;1.73;;;;;;;;;;4990607;28;20042;-79
2022/09/27 01:55:11;;;;;;;6.88;2.17;;;;;;;;;;5002849;28;20065;-79
2022/09/27 01:57:39;;;;;;;6.38;2.05;;;;;;;;;;4989801;28;20054;-80
2022/09/27 02:00:07;;;;;;;5.07;1.95;;;;;;;;;;5008130;28;20042;-80
2022/09/27 02:02:36;;;;;;;7.28;1.83;;;;;;;;;;4988432;28;20049;-80
2022/09/27 02:05:03;;;;;;;7.22;2.22;;;;;;;;;;5003206;28;20046;-80
2022/09/27 02:07:37;;;;;;;6.25;1.88;;;;;;;;;;4989725;28;20053;-80
2022/09/27 02:10:03;;;;;;;;;;;;;;;;;;4989079;28;20064;-79
2022/09/27 02:12:35;;;;;;;7.88;1.40;;;;;;;;;;4992599;28;19921;-80
2022/09/27 02:15:05;;;;;;;3.47;1.30;;;;;;;;;;4988627;28;20050;-79
2022/09/27 02:17:43;;;;;;;2.22;1.23;;;;;;;;;;4992075;28;20504;-81
2022/09/27 02:20:28;;;;;;;5.47;1.40;;;;;;;;;;4986975;28;20104;-80
2022/09/27 02:23:07;;;;;;;3.78;1.30;;;;;;;;;;4990015;28;20053;-81
2022/09/27 02:25:52;;;;;;;4.60;1.50;;;;;;;;;;4987680;28;20056;-81
2022/09/27 02:28:30;;;;;;;4.28;1.35;;;;;;;;;;5008478;28;20048;-78
2022/09/27 02:30:56;;;;;;;2.65;1.30;;;;;;;;;;5006841;28;20041;-79
2022/09/27 02:33:25;;;;;;;6.05;1.60;;;;;;;;;;5010929;28;20073;-78
2022/09/27 02:35:52;;;;;;;3.90;1.50;;;;;;;;;;4991445;28;20080;-80
2022/09/27 02:38:18;;;;;;;4.85;1.45;;;;;;;;;;5006215;28;20045;-80
2022/09/27 02:43:20;;;;;;;2.72;1.35;;;;;;;;;;5109940;22;19961;-79
2022/09/27 02:45:54;;;;;;;3.83;1.30;;;;;;;;;;5045304;28;20053;-79
2022/09/27 02:48:31;;;;;;;3.63;1.48;;;;;;;;;;5041518;28;20049;-80
2022/09/27 02:50:57;;;;;;;4.78;1.35;;;;;;;;;;5049036;28;20044;-80
2022/09/27 02:53:32;;;;;;;2.15;1.40;;;;;;;;;;5025970;28;20044;-79
2022/09/27 02:55:58;;;;;;;4.47;1.30;;;;;;;;;;5043009;28;20456;-79
2022/09/27 02:58:31;;;;;;;3.55;1.33;;;;;;;;;;5028339;28;20124;-79
2022/09/27 03:01:08;;;;;;;3.53;1.60;;;;;;;;;;5046329;28;20068;-79
2022/09/27 03:04:13;;;;;;;1.95;1.20;;;;;;;;;;5045209;28;20037;-79
2022/09/27 03:06:40;;;;;;;1.13;1.00;;;;;;;;;;4988900;28;20429;-80
2022/09/27 03:09:13;;;;;;;0.90;0.90;;;;;;;;;;5037277;28;20059;-79
2022/09/27 03:11:39;;;;;;;3.72;1.10;;;;;;;;;;5049586;28;20075;-79
2022/09/27 03:14:05;;;;;;;3.50;1.10;;;;;;;;;;5033886;28;20395;-80
2022/09/27 03:16:31;;;;;;;1.30;1.30;;;;;;;;;;5044961;28;20653;-79
2022/09/27 03:19:00;;;;;;;3.30;1.10;;;;;;;;;;5041125;28;20056;-79
2022/09/27 03:21:26;;;;;;;1.77;1.02;;;;;;;;;;5046947;28;20107;-79
2022/09/27 03:23:52;;;;;;;1.35;1.20;;;;;;;;;;5030899;28;20045;-79
2022/09/27 03:26:18;;;;;;;1.52;1.00;;;;;;;;;;5043616;28;20549;-80
2022/09/27 03:28:44;;;;;;;2.65;1.20;;;;;;;;;;5026880;28;20088;-79
2022/09/27 03:31:10;;;;;;;4.45;1.30;;;;;;;;;;5027509;28;20049;-79
2022/09/27 03:33:36;;;;;;;3.30;1.40;;;;;;;;;;5040542;28;20041;-80
2022/09/27 03:36:03;;;;;;;3.47;1.30;;;;;;;;;;5048470;28;20052;-80
2022/09/27 03:38:29;;;;;;;1.27;1.10;;;;;;;;;;5057899;28;20041;-80
2022/09/27 03:40:55;;;;;;;3.78;1.35;;;;;;;;;;5026785;28;20041;-80
2022/09/27 03:43:21;;;;;;;2.08;1.20;;;;;;;;;;5026994;28;21314;-80
2022/09/27 03:45:47;;;;;;;4.90;1.52;;;;;;;;;;5047736;28;20049;-80
2022/09/27 03:48:13;;;;;;;3.00;1.50;;;;;;;;;;5028525;28;20048;-80
2022/09/27 03:50:39;;;;;;;3.17;1.48;;;;;;;;;;5028705;28;20395;-79
2022/09/27 03:53:05;;;;;;;4.47;1.52;;;;;;;;;;5047333;28;20041;-79
2022/09/27 03:55:34;;;;;;;3.33;1.42;;;;;;;;;;5043217;28;20048;-79
2022/09/27 03:58:00;;;;;;;3.88;1.40;;;;;;;;;;5031466;28;20048;-79
2022/09/27 04:00:27;;;;;;;2.45;1.20;;;;;;;;;;5047650;28;20048;-78
2022/09/27 04:02:53;;;;;;;2.50;1.27;;;;;;;;;;5047736;28;20135;-80
2022/09/27 04:05:19;;;;;;;3.25;1.60;;;;;;;;;;5033297;28;20103;-79
2022/09/27 04:07:46;;;;;;;2.22;1.10;;;;;;;;;;5044381;28;20033;-80
2022/09/27 04:10:12;;;;;;;4.53;1.75;;;;;;;;;;5023312;28;20045;-79
2022/09/27 04:12:39;;;;;;;3.20;1.30;;;;;;;;;;5047986;28;20041;-78
2022/09/27 04:15:07;;;;;;;2.78;1.27;;;;;;;;;;5050698;28;20045;-79
2022/09/27 04:17:33;;;;;;;2.22;1.13;;;;;;;;;;5047782;28;20072;-78
2022/09/27 04:20:02;;;;;;;3.28;1.20;;;;;;;;;;5033852;28;20048;-80
2022/09/27 04:22:28;;;;;;;4.50;1.38;;;;;;;;;;5034184;28;20045;-80
2022/09/27 04:24:54;;;;;;;3.03;1.10;;;;;;;;;;5045557;28;20084;-79
2022/09/27 04:27:21;;;;;;;4.22;1.40;;;;;;;;;;5040369;28;20037;-80
2022/09/27 04:29:47;;;;;;;1.52;1.30;;;;;;;;;;5053056;28;20083;-79
2022/09/27 04:32:13;;;;;;;2.70;1.00;;;;;;;;;;5049443;28;20099;-79
2022/09/27 04:37:25;;;;;;;3.92;1.30;;;;;;;;;;5047591;28;20076;-80
2022/09/27 04:39:51;;;;;;;4.25;1.20;;;;;;;;;;5048498;28;20042;-79
2022/09/27 04:42:17;;;;;;;4.85;1.27;;;;;;;;;;5029128;28;20076;-80
2022/09/27 04:44:43;;;;;;;2.53;1.38;;;;;;;;;;5066111;28;20095;-79
2022/09/27 04:47:09;;;;;;;6.80;1.70;;;;;;;;;;5050394;28;20044;-80
2022/09/27 04:49:37;;;;;;;5.05;1.60;;;;;;;;;;5026611;28;20068;-79
2022/09/27 04:52:04;;;;;;;4.60;1.60;;;;;;;;;;5052473;28;20434;-80
2022/09/27 04:54:30;;;;;;;3.78;1.50;;;;;;;;;;5043527;28;20106;-79
2022/09/27 04:56:56;;;;;;;6.15;1.60;;;;;;;;;;5051524;28;20126;-80
2022/09/27 04:59:22;;;;;;;3.83;1.45;;;;;;;;;;5044810;28;20033;-80
2022/09/27 05:01:51;;;;;;;3.45;1.40;;;;;;;;;;5027869;28;20143;-80
2022/09/27 05:04:17;;;;;;;4.93;1.52;;;;;;;;;;5037955;28;20049;-79
2022/09/27 05:06:43;;;;;;;4.13;1.55;;;;;;;;;;5031901;28;20186;-80
2022/09/27 05:09:09;;;;;;;4.40;1.17;;;;;;;;;;5043443;28;20739;-79
2022/09/27 05:11:36;;;;;;;1.42;1.10;;;;;;;;;;5023475;28;20069;-79
2022/09/27 05:14:03;;;;;;;3.78;1.38;;;;;;;;;;5030250;28;20056;-79
2022/09/27 05:16:29;;;;;;;4.13;1.33;;;;;;;;;;5042022;28;20052;-80
2022/09/27 05:18:56;;;;;;;4.63;1.40;;;;;;;;;;5045261;28;20049;-80
2022/09/27 05:21:22;;;;;;;3.78;2.33;;;;;;;;;;5048014;28;20473;-79
2022/09/27 05:23:48;;;;;;;3.17;1.40;;;;;;;;;;5029611;28;20404;-79
2022/09/27 05:26:14;;;;;;;3.97;1.48;;;;;;;;;;5044584;28;20044;-79
2022/09/27 05:28:43;;;;;;;2.63;1.17;;;;;;;;;;5028297;28;20136;-79
2022/09/27 05:31:12;;;;;;;3.58;1.25;;;;;;;;;;5028268;28;20075;-78
2022/09/27 05:33:38;;;;;;;5.00;1.30;;;;;;;;;;5047023;28;20076;-79
2022/09/27 05:36:04;;;;;;;3.53;1.65;;;;;;;;;;5036299;28;20044;-79
2022/09/27 05:38:34;;;;;;;3.33;1.35;;;;;;;;;;5029246;28;20087;-78
2022/09/27 05:41:00;;;;;;;3.15;1.40;;;;;;;;;;5032048;28;20052;-80
2022/09/27 05:43:27;;;;;;;1.75;1.27;;;;;;;;;;5055956;28;20057;-80
2022/09/27 05:45:53;;;;;;;1.52;1.20;;;;;;;;;;5020791;28;20131;-80
2022/09/27 05:48:20;;;;;;;9.30;3.10;;;;;;;;;;5048476;28;20040;-78
2022/09/27 05:50:47;;;;;;;2.38;1.30;;;;;;;;;;5050110;28;20053;-79
2022/09/27 05:53:13;;;;;;;1.92;1.23;;;;;;;;;;5042745;28;20052;-78
2022/09/27 05:55:39;;;;;;;2.80;1.23;;;;;;;;;;5030364;28;20443;-80
2022/09/27 05:58:06;;;;;;;2.00;1.08;;;;;;;;;;5053985;28;20138;-79
2022/09/27 06:00:34;;;;;;;1.67;1.20;;;;;;;;;;5037955;28;20041;-79
2022/09/27 06:03:04;;;;;;;3.17;1.30;;;;;;;;;;5053439;28;20487;-78
2022/09/27 06:05:31;;;;;;;3.17;1.50;;;;;;;;;;5031004;28;20470;-78
2022/09/27 06:08:01;;;;;;;3.50;1.38;;;;;;;;;;5051582;28;20389;-79
2022/09/27 06:10:28;;;;;;;4.47;1.55;;;;;;;;;;5027513;28;20049;-79
2022/09/27 06:12:58;;;;;;;3.88;1.42;;;;;;;;;;5050752;28;20041;-79
2022/09/27 06:15:30;;;;;;;4.22;1.50;;;;;;;;;;5049237;28;20544;-79
2022/09/27 06:17:57;;;;;;;3.42;1.30;;;;;;;;;;5034391;28;20048;-79
2022/09/27 06:20:24;;;;;;;6.18;1.50;;;;;;;;;;5056929;28;20056;-80
2022/09/27 06:22:52;;;;;;;4.18;1.38;;;;;;;;;;5019234;28;20123;-79
2022/09/27 06:25:19;;;;;;;5.95;1.75;;;;;;;;;;5032844;28;20064;-79
2022/09/27 06:27:45;;;;;;;7.55;1.60;;;;;;;;;;5035817;28;20056;-80
2022/09/27 06:30:11;;;;;;;7.68;1.98;;;;;;;;;;5044671;28;20050;-78
2022/09/27 06:32:37;;;;;;;9.88;1.70;;;;;;;;;;5050967;28;20382;-79
2022/09/27 06:35:04;;;;;;;8.32;1.83;;;;;;;;;;5031781;28;20057;-79
2022/09/27 06:37:30;;;;;;;10.02;2.58;;;;;;;;;;5031158;28;20041;-80
2022/09/27 06:39:56;;;;;;;4.95;1.73;;;;;;;;;;5052586;28;20047;-80
2022/09/27 06:42:23;;;;;;;6.55;1.85;;;;;;;;;;5048719;28;20049;-79
2022/09/27 06:44:49;;;;;;;4.05;1.55;;;;;;;;;;5061901;28;20053;-79
2022/09/27 06:47:16;;;;;;;6.15;1.60;;;;;;;;;;5050199;28;20048;-80
2022/09/27 06:49:42;;;;;;;13.93;2.17;;;;;;;;;;5044239;28;20104;-79
2022/09/27 06:52:08;;;;;;;7.43;1.85;;;;;;;;;;5034429;28;20458;-78
2022/09/27 06:54:34;;;;;;;10.13;2.80;;;;;;;;;;5018235;28;20722;-78
2022/09/27 06:57:00;;;;;;;9.18;2.22;;;;;;;;;;5032770;28;20049;-80
2022/09/27 07:02:12;;;;;;;7.40;1.70;;;;;;;;;;5028718;28;20052;-79
2022/09/27 07:04:38;;;;;;;5.75;1.67;;;;;;;;;;5067480;28;20048;-80
2022/09/27 07:07:04;;;;;;;5.38;1.40;;;;;;;;;;5020973;28;20045;-80
2022/09/27 07:09:30;;;;;;;6.78;1.65;;;;;;;;;;5012859;28;20056;-79
2022/09/27 07:11:56;;;;;;;6.88;1.70;;;;;;;;;;5031604;28;20041;-79
2022/09/27 07:14:23;;;;;;;4.25;1.52;;;;;;;;;;5030756;28;20079;-80
2022/09/27 07:16:49;;;;;;;3.97;1.38;;;;;;;;;;5033343;28;20111;-78
2022/09/27 07:19:17;;;;;;;4.38;1.33;;;;;;;;;;5031267;28;20037;-79
2022/09/27 07:21:43;;;;;;;2.25;1.27;;;;;;;;;;5014310;28;20108;-80
2022/09/27 07:24:09;;;;;;;3.40;1.30;;;;;;;;;;5048689;28;20117;-79
2022/09/27 07:26:35;;;;;;;4.97;1.67;;;;;;;;;;5032426;28;20057;-79
2022/09/27 07:29:01;;;;;;;4.07;1.55;;;;;;;;;;5026790;28;20587;-79
2022/09/27 07:31:28;;;;;;;2.92;1.40;;;;;;;;;;5050950;28;20079;-80
2022/09/27 07:33:54;;;;;;;5.28;1.58;;;;;;;;;;5052541;28;20092;-78
2022/09/27 07:36:20;;;;;;;3.75;1.23;;;;;;;;;;5032079;28;20049;-79
2022/09/27 07:38:49;;;;;;;4.47;1.83;;;;;;;;;;5031109;28;20045;-78
2022/09/27 07:41:16;;;;;;;2.75;1.25;;;;;;;;;;5014248;28;20045;-79
2022/09/27 07:43:43;;;;;;;4.22;1.17;;;;;;;;;;5046682;28;20499;-79
2022/09/27 07:46:10;;;;;;;4.22;1.30;;;;;;;;;;5052948;28;20044;-80
2022/09/27 07:48:38;;;;;;;6.97;1.33;;;;;;;;;;5016052;28;20041;-80
2022/09/27 07:51:06;;;;;;;2.60;1.35;;;;;;;;;;5014015;28;20100;-79
2022/09/27 07:53:32;;;;;;;3.28;1.30;;;;;;;;;;5045793;28;20068;-80
2022/09/27 07:55:58;;;;;;;2.83;1.15;;;;;;;;;;5050668;28;20053;-80
2022/09/27 07:58:25;;;;;;;6.95;1.67;;;;;;;;;;5036496;28;20120;-80
2022/09/27 08:00:55;;;;;;;4.93;1.35;;;;;;;;;;5033546;28;20049;-80
2022/09/27 08:03:21;;;;;;;5.05;1.48;;;;;;;;;;5047330;28;20490;-80
2022/09/27 08:05:47;;;;;;;2.38;1.25;;;;;;;;;;5053125;28;20078;-80
2022/09/27 08:08:14;;;;;;;2.03;1.10;;;;;;;;;;5071453;28;20040;-80
2022/09/27 08:10:45;;;;;;;5.18;1.40;;;;;;;;;;5072062;28;20051;-80
2022/09/27 08:13:11;;;;;;;4.80;1.30;;;;;;;;;;5043748;28;20049;-79
2022/09/27 08:15:37;;;;;;;4.00;1.35;;;;;;;;;;5033576;28;20507;-80
2022/09/27 08:18:04;;;;;;;7.05;2.10;;;;;;;;;;5067383;28;20053;-80
2022/09/27 08:20:31;;;;;;;6.15;1.60;;;;;;;;;;5059015;28;20088;-79
2022/09/27 08:22:57;;;;;;;5.45;1.58;;;;;;;;;;5014463;28;20400;-79
2022/09/27 08:25:23;;;;;;;3.72;1.80;;;;;;;;;;5052866;28;20094;-80
2022/09/27 08:27:59;;;;;;;2.97;1.38;;;;;;;;;;5070197;28;20549;-80
2022/09/27 08:30:25;;;;;;;3.03;1.50;;;;;;;;;;5021511;28;20391;-80
2022/09/27 08:32:55;;;;;;;3.20;1.30;;;;;;;;;;5040453;28;20534;-80
2022/09/27 08:35:21;;;;;;;5.35;1.23;;;;;;;;;;5032474;28;20055;-80
2022/09/27 08:38:00;;;;;;;9.35;2.10;;;;;;;;;;5033716;28;20056;-80
2022/09/27 08:40:45;;;;;;;9.38;1.95;;;;;;;;;;5056933;28;20048;-80
2022/09/27 08:43:29;;;;;;;4.78;1.50;;;;;;;;;;5044940;28;20058;-80
2022/09/27 08:46:22;;;;;;;11.52;2.28;;;;;;;;;;5044502;28;20712;-80
2022/09/27 08:48:49;;;;;;;6.07;1.70;;;;;;;;;;5030600;28;20096;-80
2022/09/27 08:51:16;;;;;;;11.13;2.13;;;;;;;;;;5025120;28;20126;-79
2022/09/27 08:54:00;;;;;;;6.57;1.63;;;;;;;;;;5031644;28;20052;-79
2022/09/27 08:56:26;;;;;;;9.10;1.65;;;;;;;;;;5023828;28;20072;-79
2022/09/27 08:58:52;;;;;;;5.72;1.60;;;;;;;;;;5070188;28;20044;-79
2022/09/27 09:01:18;;;;;;;9.45;1.98;;;;;;;;;;5034960;28;20040;-80
2022/09/27 09:03:50;;;;;;;7.63;1.90;;;;;;;;;;5016467;28;20149;-80
2022/09/27 09:06:25;;;;;;;5.80;1.75;;;;;;;;;;5030595;28;20045;-79
2022/09/27 09:09:10;;;;;;;4.35;1.85;;;;;;;;;;5054344;28;20049;-81
2022/09/27 09:14:48;;;;;;;7.25;1.80;;;;;;;;;;5036974;28;20449;-78
2022/09/27 09:17:33;;;;;;;6.88;1.98;;;;;;;;;;5015738;28;20045;-80
2022/09/27 09:20:17;;;;;;;8.88;2.10;;;;;;;;;;5034660;28;20051;-80
2022/09/27 09:22:49;;;;;;;6.20;1.70;;;;;;;;;;5051913;28;20399;-80
2022/09/27 09:25:21;;;;;;;6.38;1.63;;;;;;;;;;5044791;28;20124;-80
2022/09/27 09:27:47;;;;;;;5.28;2.03;;;;;;;;;;5046840;28;20044;-80
2022/09/27 09:30:24;;;;;;;5.68;1.60;;;;;;;;;;5051181;28;20048;-80
2022/09/27 09:33:08;;;;;;;2.22;1.30;;;;;;;;;;5074175;28;20055;-80
2022/09/27 09:35:44;;;;;;;8.50;1.48;;;;;;;;;;5053022;28;20050;-80
2022/09/27 09:38:33;;;;;;;5.55;1.58;;;;;;;;;;5015310;28;20041;-79
2022/09/27 09:41:19;;;;;;;4.70;1.55;;;;;;;;;;5051756;28;20052;-80
2022/09/27 09:43:51;;;;;;;5.97;1.50;;;;;;;;;;5045430;28;20096;-80
2022/09/27 09:46:21;;;;;;;2.25;1.48;;;;;;;;;;5035356;28;20087;-80
2022/09/27 09:48:57;;;;;;;2.88;1.58;;;;;;;;;;5034129;28;20048;-80
2022/09/27 09:51:29;;;;;;;4.53;1.50;;;;;;;;;;5033114;28;20405;-80
2022/09/27 09:54:02;;;;;;;2.10;1.08;;;;;;;;;;5034437;28;20507;-79
2022/09/27 09:56:33;;;;;;;4.45;1.30;;;;;;;;;;5015634;28;20088;-80
2022/09/27 09:59:01;;;;;;;1.90;1.10;;;;;;;;;;5031213;28;20098;-79
2022/09/27 10:01:40;;;;;;;4.03;1.25;;;;;;;;;;5032517;28;20159;-80
2022/09/27 10:04:06;;;;;;;1.33;1.10;;;;;;;;;;5033906;28;20045;-78
2022/09/27 10:06:32;;;;;;;2.22;1.00;;;;;;;;;;5033399;28;20061;-79
2022/09/27 10:08:59;;;;;;;2.42;1.00;;;;;;;;;;5046077;28;20048;-79
2022/09/27 10:11:26;;;;;;;1.92;1.20;;;;;;;;;;5061978;28;20398;-79
2022/09/27 10:13:54;;;;;;;2.45;1.15;;;;;;;;;;5055205;28;20183;-79
2022/09/27 10:16:20;;;;;;;2.70;1.20;;;;;;;;;;5052912;28;20494;-79
2022/09/27 10:18:47;;;;;;;2.92;1.75;;;;;;;;;;5054923;28;20060;-76
2022/09/27 10:21:21;;;;;;;4.47;1.33;;;;;;;;;;5039775;28;20403;-78
2022/09/27 10:24:07;;;;;;;0.90;0.90;;;;;;;;;;5030079;28;20093;-78
2022/09/27 10:26:33;;;;;;;3.25;1.10;;;;;;;;;;5027291;28;20076;-77
2022/09/27 10:29:14;;;;;;;1.15;1.00;;;;;;;;;;5049032;28;20041;-77
2022/09/27 10:31:44;;;;;;;5.55;1.25;;;;;;;;;;5063087;28;20103;-77
2022/09/27 10:34:17;;;;;;;4.53;1.60;;;;;;;;;;5038986;28;20046;-77
2022/09/27 10:36:43;;;;;;;2.65;1.40;;;;;;;;;;5053188;28;20053;-77
2022/09/27 10:39:20;;;;;;;5.88;1.48;;;;;;;;;;5030601;28;20056;-77
2022/09/27 10:41:46;;;;;;;3.45;1.30;;;;;;;;;;5041259;28;20056;-76
2022/09/27 10:44:15;;;;;;;5.40;1.40;;;;;;;;;;5039793;28;20055;-76
2022/09/27 10:46:42;;;;;;;6.07;1.60;;;;;;;;;;5054804;28;20052;-79
2022/09/27 10:49:14;;;;;;;3.80;1.50;;;;;;;;;;5029992;28;20526;-77
2022/09/27 10:51:44;;;;;;;1.17;0.98;;;;;;;;;;5024608;28;20430;-77
2022/09/27 10:54:21;;;;;;;1.25;1.08;;;;;;;;;;5030038;28;20047;-77
2022/09/27 10:56:55;;;;;;;2.13;1.00;;;;;;;;;;5037473;28;20049;-78
2022/09/27 10:59:21;;;;;;;2.92;1.42;;;;;;;;;;5050966;28;20426;-77
2022/09/27 11:01:49;;;;;;;2.05;1.05;;;;;;;;;;5024669;28;20045;-78
2022/09/27 11:04:24;;;;;;;1.60;1.13;;;;;;;;;;5031184;28;20041;-78
2022/09/27 11:06:50;;;;;;;1.45;1.20;;;;;;;;;;5045417;28;20585;-79
2022/09/27 11:09:18;;;;;;;3.35;1.40;;;;;;;;;;5047162;28;20094;-78
2022/09/27 11:11:45;;;;;;;3.15;1.20;;;;;;;;;;5031506;28;20049;-79
2022/09/27 11:14:37;;;;;;;2.45;1.10;;;;;;;;;;5030518;28;20168;-78
2022/09/27 11:17:03;;;;;;;2.47;1.30;;;;;;;;;;5039799;28;20496;-79
2022/09/27 11:19:29;;;;;;;3.38;1.20;;;;;;;;;;5045376;28;20398;-78
2022/09/27 11:22:08;;;;;;;1.38;1.17;;;;;;;;;;5033035;28;20139;-79
2022/09/27 11:24:47;;;;;;;3.40;1.33;;;;;;;;;;5045203;28;20396;-79
2022/09/27 11:27:14;;;;;;;3.72;1.40;;;;;;;;;;5063390;28;20115;-80
2022/09/27 11:30:03;;;;;;;2.35;1.05;;;;;;;;;;5038281;28;20037;-78
2022/09/27 11:32:41;;;;;;;14.00;2.03;;;;;;;;;;5031793;28;20500;-78
2022/09/27 11:35:10;;;;;;;5.82;1.90;;;;;;;;;;5051949;28;20123;-78
2022/09/27 11:38:00;;;;;;;5.90;1.38;;;;;;;;;;5066967;28;20044;-78
2022/09/27 11:40:32;;;;;;;2.08;1.15;;;;;;;;;;5041409;28;20110;-79
2022/09/27 11:43:03;;;;;;;1.10;0.95;;;;;;;;;;5071885;28;20411;-79
2022/09/27 11:45:48;;;;;;;4.10;1.50;;;;;;;;;;5047734;28;20052;-79
2022/09/27 11:48:24;;;;;;;2.97;1.20;;;;;;;;;;5030015;28;20134;-79
2022/09/27 11:51:10;;;;;;;3.08;1.30;;;;;;;;;;5046885;28;20044;-79
2022/09/27 11:53:39;;;;;;;3.13;1.33;;;;;;;;;;5053038;28;20043;-79
2022/09/27 11:56:12;;;;;;;4.90;1.42;;;;;;;;;;5063153;28;20041;-80
2022/09/27 11:58:41;;;;;;;3.17;1.08;;;;;;;;;;5013940;28;20484;-80
2022/09/27 12:01:16;;;;;;;2.85;1.20;;;;;;;;;;5058688;28;20073;-78
2022/09/27 12:03:42;;;;;;;2.72;1.42;;;;;;;;;;5041979;28;20044;-81
2022/09/27 12:06:12;;;;;;;4.22;1.70;;;;;;;;;;5066428;28;20411;-79
2022/09/27 12:08:48;;;;;;;7.72;1.98;;;;;;;;;;5061563;28;20041;-78
2022/09/27 12:11:14;;;;;;;10.52;2.85;;;;;;;;;;5063347;28;20403;-79
2022/09/27 12:13:46;;;;;;;5.10;1.40;;;;;;;;;;5040765;28;20043;-78
2022/09/27 12:16:15;;;;;;;2.70;1.35;;;;;;;;;;5064097;28;20045;-78
2022/09/27 12:18:46;;;;;;;7.18;1.60;;;;;;;;;;5054930;28;20037;-78
2022/09/27 12:21:12;;;;;;;5.90;1.60;;;;;;;;;;5064395;28;20063;-79
2022/09/27 12:23:40;;;;;;;5.50;1.63;;;;;;;;;;5049512;28;20115;-79
2022/09/27 12:26:18;;;;;;;3.75;1.30;;;;;;;;;;5067385;28;20477;-79
2022/09/27 12:28:49;;;;;;;6.03;1.90;;;;;;;;;;5071834;28;20376;-79
2022/09/27 12:31:25;;;;;;;2.08;1.33;;;;;;;;;;5054790;28;20063;-79
2022/09/27 12:33:56;;;;;;;1.48;1.08;;;;;;;;;;5049153;28;20044;-79
2022/09/27 12:36:24;;;;;;;2.45;1.00;;;;;;;;;;5052529;28;20135;-79
2022/09/27 12:38:55;;;;;;;2.00;1.20;;;;;;;;;;5067208;28;20045;-79
2022/09/27 12:41:22;;;;;;;1.95;1.17;;;;;;;;;;5037757;28;20093;-79
2022/09/27 12:43:49;;;;;;;5.97;1.40;;;;;;;;;;5063869;28;20053;-79
2022/09/27 12:46:18;;;;;;;8.07;1.88;;;;;;;;;;5033196;28;20072;-82
2022/09/27 12:48:55;;;;;;;6.82;1.55;;;;;;;;;;5018992;28;20051;-81
2022/09/27 12:51:22;;;;;;;2.65;1.30;;;;;;;;;;5053313;28;20055;-81
2022/09/27 12:53:48;;;;;;;3.08;1.33;;;;;;;;;;5045292;28;20063;-80
2022/09/27 12:56:26;;;;;;;3.22;1.00;;;;;;;;;;5058482;28;20048;-80
2022/09/27 12:58:55;;;;;;;3.33;1.55;;;;;;;;;;5048902;28;20045;-80
2022/09/27 13:01:21;;;;;;;3.53;1.83;;;;;;;;;;5030994;28;20053;-80
2022/09/27 13:03:49;;;;;;;2.13;1.23;;;;;;;;;;5061599;28;20455;-80
2022/09/27 13:06:33;;;;;;;7.30;1.48;;;;;;;;;;5032534;28;20495;-82
2022/09/27 13:09:18;;;;;;;2.85;1.38;;;;;;;;;;5051975;28;20534;-81
2022/09/27 13:11:48;;;;;;;2.88;1.45;;;;;;;;;;5035830;28;20598;-81
2022/09/27 13:14:19;;;;;;;6.53;1.73;;;;;;;;;;5059265;28;20048;-82
2022/09/27 13:16:48;;;;;;;5.43;1.20;;;;;;;;;;5036189;28;20045;-80
2022/09/27 13:19:32;;;;;;;2.92;1.58;;;;;;;;;;5066654;28;20527;-81
2022/09/27 13:21:58;;;;;;;2.63;1.42;;;;;;;;;;5046326;28;20041;-80
2022/09/27 13:24:43;;;;;;;1.63;1.48;;;;;;;;;;5041753;28;20076;-80
2022/09/27 13:27:22;;;;;;;1.60;1.20;;;;;;;;;;5044736;28;20080;-79
2022/09/27 13:29:48;;;;;;;3.40;1.40;;;;;;;;;;5028267;28;20041;-80
2022/09/27 13:32:16;;;;;;;3.92;1.40;;;;;;;;;;5034916;28;20095;-77
2022/09/27 13:34:42;;;;;;;2.42;1.30;;;;;;;;;;5041569;28;20059;-76
2022/09/27 13:37:26;;;;;;;6.25;1.45;;;;;;;;;;5036196;28;20136;-78
2022/09/27 13:40:10;;;;;;;1.95;1.40;;;;;;;;;;5040049;28;20075;-79
2022/09/27 13:42:38;;;;;;;3.13;1.30;;;;;;;;;;5025046;28;20072;-78
2022/09/27 13:45:15;;;;;;;4.28;1.40;;;;;;;;;;5029175;28;20393;-79
2022/09/27 13:47:45;;;;;;;5.57;1.30;;;;;;;;;;5024486;28;20052;-76
2022/09/27 13:50:19;;;;;;;1.85;1.10;;;;;;;;;;5033921;28;20060;-79
2022/09/27 13:52:55;;;;;;;2.42;1.20;;;;;;;;;;5041765;28;20200;-77
2022/09/27 13:55:59;;;;;;;3.95;1.20;;;;;;;;;;5049853;28;20048;-77
2022/09/27 13:58:44;;;;;;;6.93;1.27;;;;;;;;;;4972850;28;20489;-79
2022/09/27 14:01:16;;;;;;;4.53;1.60;;;;;;;;;;4957256;28;20138;-77
2022/09/27 14:03:43;;;;;;;5.93;1.48;;;;;;;;;;5008901;28;20326;-77
2022/09/27 14:06:13;;;;;;;3.25;1.10;;;;;;;;;;5038937;28;20061;-77
2022/09/27 14:08:50;;;;;;;3.47;1.45;;;;;;;;;;5042139;28;20044;-81
2022/09/27 14:11:22;;;;;;;5.13;1.40;;;;;;;;;;5031585;28;20067;-79
2022/09/27 14:13:49;;;;;;;4.70;1.97;;;;;;;;;;5037266;28;20476;-84
2022/09/27 14:16:16;;;;;;;2.88;1.40;;;;;;;;;;5047274;28;20496;-78
2022/09/27 14:18:44;;;;;;;1.88;1.20;;;;;;;;;;5046671;28;20052;-80
2022/09/27 14:21:17;;;;;;;6.10;1.48;;;;;;;;;;5032064;28;20080;-78
2022/09/27 14:23:43;;;;;;;2.17;1.10;;;;;;;;;;5038518;28;20135;-78
2022/09/27 14:26:28;;;;;;;2.78;1.33;;;;;;;;;;5033776;28;20634;-75
2022/09/27 14:28:54;;;;;;;2.53;1.20;;;;;;;;;;5048106;28;20056;-79
2022/09/27 14:31:22;;;;;;;2.42;1.20;;;;;;;;;;5026555;28;20361;-80
2022/09/27 14:33:48;;;;;;;2.63;1.13;;;;;;;;;;5045501;28;20049;-79
2022/09/27 14:39:20;;;;;;;4.18;1.63;;;;;;;;;;5050320;28;20360;-80
2022/09/27 14:41:46;;;;;;;2.67;1.10;;;;;;;;;;5031086;28;20170;-79
2022/09/27 14:44:17;;;;;;;3.25;1.13;;;;;;;;;;5048165;28;20061;-77
2022/09/27 14:46:43;;;;;;;2.58;1.10;;;;;;;;;;5045080;28;20111;-82
2022/09/27 14:49:27;;;;;;;2.75;1.20;;;;;;;;;;5045476;28;20045;-80
2022/09/27 14:51:54;;;;;;;1.45;1.00;;;;;;;;;;5041710;28;20041;-82
2022/09/27 14:54:21;;;;;;;2.05;1.00;;;;;;;;;;5047402;28;20044;-82
2022/09/27 14:56:48;;;;;;;4.65;1.40;;;;;;;;;;5043579;28;20065;-79
2022/09/27 14:59:15;;;;;;;3.47;1.30;;;;;;;;;;5033487;28;20072;-82
2022/09/27 15:01:49;;;;;;;5.65;1.60;;;;;;;;;;5019070;28;20105;-77
2022/09/27 15:04:15;;;;;;;4.30;1.65;;;;;;;;;;5028129;28;20044;-78
2022/09/27 15:06:42;;;;;;;4.75;1.55;;;;;;;;;;5048221;28;20107;-77
2022/09/27 15:09:12;;;;;;;2.60;1.25;;;;;;;;;;5048522;28;20052;-78
2022/09/27 15:11:40;;;;;;;3.67;1.23;;;;;;;;;;5039480;28;20475;-78
2022/09/27 15:14:06;;;;;;;4.07;1.17;;;;;;;;;;5031750;28;20381;-81
2022/09/27 15:16:33;;;;;;;3.47;1.20;;;;;;;;;;5039822;28;20463;-76